Antelope Valley, Nevada Weather observations

Data are for 10 minute period ending at time listed.
 Day   Time   Solar   Ave.   Ave.  Ave.  Vector  Max.   Baro.   Total    
  of    of     Rad.   Air    Rel.  Wind   Wind   Wind  Press.  Precip.   
Year   Day            Temp.  Hum.  Speed  Dir.   Gust                    
2014   (PST)  Kw/m2    F      %     mph   deg.    mph    mb.     in.     
-------------------------------------------------------------------------
 107   10:20   0.82   65.6    24    2.7   114     6.9   847.8    0.00 
 107   10:30   0.84   66.1    25    3.0    17     5.6   847.6    0.00 
 107   10:40   0.85   65.9    26    3.8   328     5.6   847.4    0.00 
 107   10:50   0.86   66.4    25    3.5   319     7.6   847.2    0.00 
 107   11:00   0.87   66.9    24    3.1   346     6.2   847.0    0.00 
 107   11:10   0.88   67.5    23    3.5   292     7.5   846.8    0.00 
 107   11:20   0.89   68.2    22    3.3   300     6.7   846.6    0.00 
 107   11:30   0.89   69.2    22    7.3   281    11.9   846.4    0.00 
 107   11:40   0.89   69.2    22    5.2   274    10.4   846.3    0.00 
 107   11:50   0.89   70.5    20    5.2   235     9.8   846.1    0.00 
 107   12:00   0.89   70.0    20    5.7   281    10.5   846.0    0.00 
 107   12:10   0.89   71.0    20    7.3   270    13.4   845.9    0.00 
 107   12:20   0.89   71.6    19    4.7   238    12.6   845.8    0.00 
 107   12:30   0.88   72.6    18    9.8   269    14.0   845.6    0.00 
 107   12:40   0.88   72.4    18    9.4   262    14.4   845.4    0.00 
 107   12:50   0.87   72.5    18    8.4   254    12.9   845.3    0.00 
 107   13:00   0.86   72.9    18    7.0   258    12.8   845.2    0.00 
 107   13:10   0.85   73.1    17    6.9   239    12.5   845.0    0.00 
 107   13:20   0.84   73.8    16    4.9   242    13.0   844.8    0.00 
 107   13:30   0.82   74.4    16    4.5   187    10.5   844.7    0.00 
 107   13:40   0.79   75.3    17    4.3   259    12.3   844.7    0.00 
 107   13:50   0.71   74.5    16    9.9   252    17.6   844.5    0.00 
 107   14:00   0.61   74.3    17    9.3   242    16.5   844.4    0.00 
 107   14:10   0.65   74.8    16    9.6   228    17.3   844.3    0.00 
 107   14:20   0.74   74.9    16    9.8   239    16.4   844.0    0.00 
 107   14:30   0.71   75.4    16   10.1   266    15.9   843.8    0.00 
 107   14:40   0.70   75.9    15   11.0   257    16.7   843.7    0.00 
 107   14:50   0.67   75.4    15   10.9   253    20.2   843.6    0.00 
 107   15:00   0.50   75.3    15    9.4   251    17.8   843.5    0.00 
 107   15:10   0.66   75.5    15   12.7   262    20.4   843.3    0.00 
 107   15:20   0.61   75.3    15   12.8   271    19.6   843.3    0.00 
 107   15:30   0.54   75.2    15   11.6   270    20.6   843.2    0.00 
 107   15:40   0.43   75.2    15   13.5   259    21.2   843.1    0.00 
 107   15:50   0.45   74.6    15   10.8   258    15.5   843.0    0.00 
 107   16:00   0.47   74.8    15   11.9   265    18.0   843.0    0.00 
 107   16:10   0.33   74.2    15   10.5   253    18.9   842.9    0.00 
 107   16:20   0.28   73.6    16   10.7   252    16.5   842.8    0.00 
 107   16:30   0.31   74.4    16   11.2   257    14.8   842.7    0.00 
 107   16:40   0.22   73.8    16   10.9   266    16.4   842.7    0.00 
 107   16:50   0.14   73.0    16   11.1   263    15.3   842.7    0.00 
 107   17:00   0.19   72.8    17   10.2   260    18.2   842.6    0.00 
 107   17:10   0.08   72.0    17    8.6   258    12.4   842.7    0.00 
 107   17:20   0.09   71.3    18    8.8   270    13.4   842.7    0.00 
 107   17:30   0.10   70.7    19    5.2   264     8.6   842.7    0.00 
 107   17:40   0.08   70.0    21    7.6   282    11.8   842.7    0.00 
 107   17:50   0.06   68.6    23    9.9   290    14.2   842.8    0.00 
 107   18:00   0.04   66.7    26    6.8   293     9.9   842.9    0.00 
 107   18:10   0.02   65.7    28    4.9   292     8.3   842.9    0.00 
 107   18:20   0.01   65.0    27    2.1   283     3.7   843.0    0.00 
 107   18:30   0.01   64.8    24    0.2   247     1.2   843.1    0.00 
 107   18:40   0.00   63.7    29    3.4   129     5.6   843.1    0.00 
 107   18:50   0.00   61.8    33    5.5   131     6.4   843.2    0.00 
 107   19:00   0.00   60.1    37    5.0   136     6.8   843.2    0.00 
 107   19:10   0.00   59.1    36    5.6   152     7.1   843.4    0.00 
 107   19:20   0.00   61.1    30    4.0   159     5.6   843.6    0.00 
 107   19:30   0.00   61.6    29    3.9   164     5.6   843.7    0.00 
 107   19:40   0.00   61.2    30    3.6   168     5.1   843.9    0.00 
 107   19:50   0.00   60.6    34    3.6   179     4.6   844.0    0.00 
 107   20:00   0.00   60.9    32    6.7   207    13.2   844.2    0.00 
 107   20:10   0.00   64.0    28    4.9   261     9.5   844.3    0.00 
 107   20:20   0.00   62.2    31    4.6   261     6.2   844.4    0.00 
 107   20:30   0.00   63.8    29    8.9   262    23.3   844.4    0.00 
 107   20:40   0.00   66.6    26   14.6   247    29.1   844.2    0.00 
 107   20:50   0.00   65.9    26    9.2   271    16.4   844.4    0.00 
 107   21:00   0.00   63.9    30    6.3   238     9.9   844.6    0.00 
 107   21:10   0.00   62.3    32    9.5   228    12.8   844.7    0.00 
 107   21:20   0.00   61.8    33   10.3   238    17.5   844.9    0.00 
 107   21:30   0.00   63.8    30   15.4   258    21.0   844.9    0.00 
 107   21:40   0.00   64.0    31   14.1   260    20.3   845.0    0.00 
 107   21:50   0.00   63.8    32   12.5   261    19.6   845.2    0.00 
 107   22:00   0.00   63.5    33   12.4   251    17.6   845.5    0.00 
 107   22:10   0.00   61.5    38    9.3   211    13.6   845.7    0.00 
 107   22:20   0.00   61.2    39    8.6   225    12.9   845.9    0.00 
 107   22:30   0.00   62.1    38    8.8   264    14.6   845.8    0.00 
 107   22:40   0.00   60.4    43    5.6   222     8.3   846.0    0.00 
 107   22:50   0.00   59.8    43    8.3   229    12.5   846.2    0.00 
 107   23:00   0.00   60.3    41    8.6   232    11.2   846.2    0.00 
 107   23:10   0.00   59.4    43    6.7   226     8.3   846.3    0.00 
 107   23:20   0.00   59.0    43    7.6   224    12.6   846.3    0.00 
 107   23:30   0.00   58.7    43    8.4   230    10.6   846.3    0.00 
 107   23:40   0.00   57.1    48    6.4   226     7.9   846.4    0.00 
 107   23:50   0.00   57.0    47    5.7   259     8.5   846.6    0.00 
 108    0:00   0.00   58.5    42    4.2   270     5.3   846.8    0.00 
 108    0:10   0.00   57.7    45    3.9   216     5.0   846.9    0.00 
 108    0:20   0.00   55.8    52    3.9   169     6.1   846.8    0.00 
 108    0:30   0.00   55.9    50    2.3    46     3.9   846.8    0.00 
 108    0:40   0.00   58.2    43    1.4   171     4.3   846.9    0.00 
 108    0:50   0.00   58.4    44    3.8   110     8.0   846.8    0.00 
 108    1:00   0.00   57.9    47    3.4   128     6.6   846.7    0.00 
 108    1:10   0.00   55.8    50    2.5   124     4.2   846.8    0.00 
 108    1:20   0.00   56.1    49    3.9   150     6.4   846.9    0.00 
 108    1:30   0.00   54.8    50    2.1   168     3.1   846.8    0.00 
 108    1:40   0.00   53.2    53    3.0   145     4.1   846.7    0.00 
 108    1:50   0.00   50.7    61    4.8   137     6.3   846.8    0.00 
 108    2:00   0.00   48.4    65    3.5   138     5.4   846.8    0.00 
 108    2:10   0.00   47.6    68    4.1    82     6.6   846.8    0.00 
 108    2:20   0.00   47.6    69    5.4    60     8.2   846.9    0.00 
 108    2:30   0.00   48.5    67    7.2    55    10.7   847.0    0.00 
 108    2:40   0.00   49.8    65    7.5    59    11.8   847.0    0.00 
 108    2:50   0.00   48.7    69    7.6    57    10.0   847.0    0.00 
 108    3:00   0.00   50.3    65    8.3    44    11.8   847.0    0.00 
 108    3:10   0.00   49.8    68    6.0    37     8.6   847.2    0.00 
 108    3:20   0.00   49.0    70    5.5    32     7.9   847.3    0.00 
 108    3:30   0.00   49.9    67    6.3    37     7.7   847.3    0.00 
 108    3:40   0.00   50.0    66    6.5    40     9.2   847.3    0.00 
 108    3:50   0.00   49.7    65    6.7    45     8.3   847.3    0.00 
 108    4:00   0.00   48.8    69    5.8    45     7.3   847.3    0.00 
 108    4:10   0.00   49.7    65    7.9    51    11.7   847.3    0.00 
 108    4:20   0.00   50.1    65    7.0    30     9.3   847.4    0.00 
 108    4:30   0.00   49.6    66    7.1    33    10.4   847.6    0.00 
 108    4:40   0.00   49.0    69    4.8    40     6.1   847.8    0.00 
 108    4:50   0.00   48.4    71    5.0    48     6.6   847.9    0.00 
 108    5:00   0.00   48.8    70    6.6    44     9.3   848.0    0.00 
 108    5:10   0.00   49.5    68    7.4    27    10.5   848.2    0.00 
 108    5:20   0.00   49.3    67    8.0    17    10.3   848.4    0.00 
 108    5:30   0.01   49.2    66   10.0    15    14.5   848.7    0.00 
 108    5:40   0.03   49.3    66   10.5    12    15.6   848.9    0.00 
 108    5:50   0.05   49.2    65   12.1    17    16.7   849.1    0.00 
 108    6:00   0.07   49.0    66   10.3    12    13.6   849.3    0.00 
 108    6:10   0.07   48.8    66   10.9    27    15.7   849.4    0.00 
 108    6:20   0.06   48.8    66   12.9    26    17.7   849.5    0.00 
 108    6:30   0.06   48.6    66   12.5    29    15.9   849.6    0.00 
 108    6:40   0.08   48.5    65   10.9    26    15.0   849.8    0.00 
 108    6:50   0.12   49.0    64   12.0    24    15.6   849.9    0.00 
 108    7:00   0.14   49.4    63   11.7    23    16.4   850.1    0.00 
 108    7:10   0.15   49.6    62   11.2    22    14.6   850.2    0.00 
 108    7:20   0.19   49.8    63   10.1    18    13.4   850.3    0.00 
 108    7:30   0.27   50.5    62   11.2    24    15.6   850.3    0.00 
 108    7:40   0.24   50.9    62   11.0    26    14.3   850.3    0.00 
 108    7:50   0.24   51.0    61   10.1    34    13.5   850.4    0.00 
 108    8:00   0.24   51.1    61   10.2    28    15.1   850.4    0.00 
 108    8:10   0.28   51.5    60    9.3    25    12.6   850.5    0.00 
 108    8:20   0.32   51.9    60    8.5    15    12.1   850.4    0.00 
 108    8:30   0.31   52.2    58    7.9    24    11.8   850.4    0.00 
 108    8:40   0.30   52.7    56    6.6    27     9.4   850.4    0.00 
 108    8:50   0.14   52.6    58    5.9   359     8.4   850.4    0.00 
 108    9:00   0.35   53.0    57    5.2   350     7.7   850.4    0.00 
 108    9:10   0.44   53.7    56    5.9     4     8.6   850.5    0.00 
 108    9:20   0.47   54.2    54    5.8   352    10.7   850.5    0.00 
 108    9:30   0.48   54.5    53    5.8     6    10.2   850.5    0.00 
 108    9:40   0.45   55.0    51    4.1    14     7.2   850.6    0.00 
 108    9:50   0.56   55.9    50    5.7    48     7.9   850.6    0.00 
 108   10:00   0.75   56.5    49    5.1    35     9.0   850.6    0.00 
 108   10:10   0.67   56.7    48    5.1    53     9.7   850.6    0.00 

Return to Antelope Valley graphs page.


Western Regional Climate Center,wrcc@dri.edu